Whitesville, New York
Current Conditions -  °F | °C
As of 11:56 AM on Monday 24 Nov 2014 (Local Time) from KELZ Reporting Station
Scattered Clouds Scattered Clouds  
Wind Chill: 63°   Ceiling: Unl
Heat Index: 63°   Visibility: 10mi
Dew Point: 49°   Wind: 18mph
Humidity: 60%   Direction: 180°S
Pressure: 29.38"   Gusts: 29mph
Location:  42.04°N, 77.76°W
Report Text: KELZ 241656Z AUTO 18016G25KT 10SM SCT036 SCT045 17/09 A2938 RMK AO2 PK WND 19032/1634 SLP948 T01720094
Loading
Personal Weather Stations






























Interactive Weather Map New forecast layout! Learn more

10-Day Weather Forecast

Advertisements
Track Severe Weather on mobile